createdAt,value
2022-10-20T00:01:59.043Z,11.10
2022-10-20T00:04:25.661Z,11.10
2022-10-20T00:06:52.198Z,11.10
2022-10-20T00:09:18.734Z,11.00
2022-10-20T00:11:45.914Z,11.10
2022-10-20T00:14:12.875Z,11.10
2022-10-20T00:16:39.852Z,11.10
2022-10-20T00:19:06.685Z,11.10
2022-10-20T00:21:33.462Z,11.00
2022-10-20T00:24:01.359Z,11.00
2022-10-20T00:26:29.194Z,11.00
2022-10-20T00:28:58.410Z,11.00
2022-10-20T00:31:25.809Z,10.90
2022-10-20T00:33:55.017Z,10.90
2022-10-20T00:36:22.644Z,10.90
2022-10-20T00:38:51.797Z,10.90
2022-10-20T00:41:19.662Z,10.80
2022-10-20T00:43:48.354Z,10.90
2022-10-20T00:46:16.569Z,10.90
2022-10-20T00:48:45.379Z,10.80
2022-10-20T00:51:14.919Z,10.80
2022-10-20T00:53:45.183Z,10.70
2022-10-20T00:56:12.446Z,10.70
2022-10-20T00:58:39.200Z,10.70
2022-10-20T01:01:05.757Z,10.70
2022-10-20T01:03:36.443Z,10.60
2022-10-20T01:06:03.753Z,10.60
2022-10-20T01:08:30.421Z,10.60
2022-10-20T01:10:56.939Z,10.50
2022-10-20T01:13:29.569Z,10.50
2022-10-20T01:16:05.829Z,10.50
2022-10-20T01:18:35.384Z,10.50
2022-10-20T01:21:20.563Z,10.50
2022-10-20T01:24:01.244Z,10.50
2022-10-20T01:26:30.507Z,10.50
2022-10-20T01:29:01.212Z,10.50
2022-10-20T01:31:30.878Z,10.50
2022-10-20T01:34:09.934Z,10.50
2022-10-20T01:36:40.919Z,10.50
2022-10-20T01:39:10.827Z,10.50
2022-10-20T01:41:49.375Z,10.50
2022-10-20T01:44:16.957Z,10.50
2022-10-20T01:46:44.072Z,10.50
2022-10-20T01:49:13.793Z,10.50
2022-10-20T01:54:24.083Z,10.50
2022-10-20T01:57:04.712Z,10.50
2022-10-20T01:59:33.823Z,10.40
2022-10-20T02:02:06.170Z,10.40
2022-10-20T02:04:51.658Z,10.40
2022-10-20T02:07:23.477Z,10.40
2022-10-20T02:12:24.868Z,10.30
2022-10-20T02:14:52.528Z,10.30
2022-10-20T02:17:20.081Z,10.30
2022-10-20T02:19:50.231Z,10.20
2022-10-20T02:22:17.451Z,10.10
2022-10-20T02:24:46.582Z,10.10
2022-10-20T02:27:17.801Z,10.10
2022-10-20T02:29:54.315Z,10.10
2022-10-20T02:32:21.517Z,10.10
2022-10-20T02:34:48.098Z,10.00
2022-10-20T02:37:14.715Z,9.90
2022-10-20T02:39:41.321Z,9.80
2022-10-20T02:42:07.869Z,9.70
2022-10-20T02:44:34.442Z,9.60
2022-10-20T02:47:03.185Z,9.60
2022-10-20T02:49:29.737Z,9.50
2022-10-20T02:51:58.573Z,9.50
2022-10-20T02:54:27.440Z,9.40
2022-10-20T02:56:56.574Z,9.40
2022-10-20T02:59:23.067Z,9.30
2022-10-20T03:01:52.557Z,9.30
2022-10-20T03:04:19.228Z,9.30
2022-10-20T03:06:48.026Z,9.20
2022-10-20T03:09:14.581Z,9.10
2022-10-20T03:11:41.096Z,9.10
2022-10-20T03:14:07.648Z,9.00
2022-10-20T03:16:34.169Z,9.00
2022-10-20T03:19:03.914Z,9.00
2022-10-20T03:21:32.874Z,9.00
2022-10-20T03:24:04.216Z,8.90
2022-10-20T03:26:30.838Z,8.90
2022-10-20T03:28:57.353Z,8.90
2022-10-20T03:31:26.251Z,8.90
2022-10-20T03:33:52.815Z,8.90
2022-10-20T03:36:19.359Z,8.90
2022-10-20T03:38:45.882Z,9.00
2022-10-20T03:41:12.504Z,9.00
2022-10-20T03:43:39.303Z,8.90
2022-10-20T03:46:07.289Z,8.90
2022-10-20T03:48:36.405Z,8.90
2022-10-20T03:51:03.682Z,8.90
2022-10-20T03:53:30.398Z,8.80
2022-10-20T03:55:57.019Z,8.70
2022-10-20T03:58:23.655Z,8.60
2022-10-20T04:00:52.331Z,8.70
2022-10-20T04:03:18.937Z,8.70
2022-10-20T04:05:45.481Z,8.80
2022-10-20T04:08:12.137Z,8.90
2022-10-20T04:10:38.707Z,8.90
2022-10-20T04:13:05.211Z,9.00
2022-10-20T04:15:31.936Z,9.00
2022-10-20T04:18:00.870Z,9.00
2022-10-20T04:20:27.463Z,8.90
2022-10-20T04:22:53.994Z,9.00
2022-10-20T04:25:20.500Z,9.00
2022-10-20T04:27:49.208Z,9.00
2022-10-20T04:30:18.226Z,9.00
2022-10-20T04:32:44.807Z,9.10
2022-10-20T04:35:11.329Z,9.10
2022-10-20T04:37:38.290Z,9.10
2022-10-20T04:40:05.434Z,9.00
2022-10-20T04:42:32.043Z,9.00
2022-10-20T04:47:33.805Z,8.80
2022-10-20T04:50:00.632Z,8.80
2022-10-20T04:52:28.283Z,8.70
2022-10-20T04:54:57.010Z,8.70
2022-10-20T04:57:26.009Z,8.80
2022-10-20T04:59:52.504Z,8.80
2022-10-20T05:02:19.094Z,8.80
2022-10-20T05:04:46.450Z,8.80
2022-10-20T05:07:12.991Z,8.80
2022-10-20T05:09:42.004Z,8.80
2022-10-20T05:12:08.570Z,8.80
2022-10-20T05:14:35.132Z,8.80
2022-10-20T05:17:03.236Z,8.80
2022-10-20T05:19:34.290Z,8.80
2022-10-20T05:22:02.837Z,8.90
2022-10-20T05:24:30.207Z,8.80
2022-10-20T05:26:56.888Z,8.80
2022-10-20T05:29:25.628Z,8.70
2022-10-20T05:31:52.143Z,8.70
2022-10-20T05:34:20.825Z,8.80
2022-10-20T05:36:47.373Z,8.80
2022-10-20T05:39:13.991Z,8.90
2022-10-20T05:41:40.507Z,8.80
2022-10-20T05:44:08.902Z,8.80
2022-10-20T05:46:38.299Z,8.80
2022-10-20T05:49:04.912Z,8.80
2022-10-20T05:51:33.771Z,8.80
2022-10-20T05:54:00.368Z,8.90
2022-10-20T05:56:27.658Z,8.90
2022-10-20T05:58:54.219Z,8.90
2022-10-20T06:01:24.287Z,8.90
2022-10-20T06:03:55.041Z,8.90
2022-10-20T06:06:22.565Z,8.80
2022-10-20T06:08:50.708Z,8.80
2022-10-20T06:11:18.316Z,8.80
2022-10-20T06:13:47.125Z,8.90
2022-10-20T06:16:25.327Z,8.90
2022-10-20T06:18:52.275Z,8.90
2022-10-20T06:21:20.048Z,8.90
2022-10-20T06:23:46.958Z,9.00
2022-10-20T06:26:17.552Z,9.00
2022-10-20T06:28:44.346Z,9.00
2022-10-20T06:31:17.610Z,9.10
2022-10-20T06:33:47.044Z,9.20
2022-10-20T06:36:14.371Z,9.30
2022-10-20T06:38:41.094Z,9.30
2022-10-20T06:41:09.304Z,9.30
2022-10-20T06:43:36.091Z,9.30
2022-10-20T06:46:03.923Z,9.40
2022-10-20T06:48:30.527Z,9.30
2022-10-20T06:51:02.371Z,9.30
2022-10-20T06:53:29.242Z,9.30
2022-10-20T06:56:02.206Z,9.30
2022-10-20T06:58:33.724Z,9.30
2022-10-20T07:01:02.629Z,9.30
2022-10-20T07:03:31.916Z,9.30
2022-10-20T07:05:58.873Z,9.30
2022-10-20T07:08:29.764Z,9.40
2022-10-20T07:11:05.243Z,9.40
2022-10-20T07:13:34.222Z,9.50
2022-10-20T07:16:01.289Z,9.50
2022-10-20T07:18:28.323Z,9.50
2022-10-20T07:20:59.053Z,9.60
2022-10-20T07:23:26.717Z,9.60
2022-10-20T07:25:53.427Z,9.60
2022-10-20T07:28:21.735Z,9.60
2022-10-20T07:30:48.732Z,9.70
2022-10-20T07:33:15.366Z,9.70
2022-10-20T07:35:42.035Z,9.70
2022-10-20T07:38:08.572Z,9.80
2022-10-20T07:40:35.133Z,9.80
2022-10-20T07:43:01.638Z,9.90
2022-10-20T07:45:28.163Z,9.80
2022-10-20T07:47:56.986Z,9.90
2022-10-20T07:50:24.684Z,9.90
2022-10-20T07:52:52.177Z,9.90
2022-10-20T07:55:37.476Z,10.00
2022-10-20T07:58:05.339Z,10.00
2022-10-20T08:00:34.112Z,9.90
2022-10-20T08:03:03.087Z,9.90
2022-10-20T08:05:29.756Z,10.00
2022-10-20T08:08:00.513Z,9.90
2022-10-20T08:10:29.429Z,10.00
2022-10-20T08:12:58.163Z,10.10
2022-10-20T08:15:24.805Z,10.00
2022-10-20T08:17:51.320Z,10.00
2022-10-20T08:23:01.375Z,10.00
2022-10-20T08:25:27.919Z,10.10
2022-10-20T08:30:28.456Z,10.30
2022-10-20T08:32:54.989Z,10.40
2022-10-20T08:35:22.145Z,10.40
2022-10-20T08:37:48.793Z,10.40
2022-10-20T08:40:23.785Z,10.40
2022-10-20T08:42:50.618Z,10.50
2022-10-20T08:45:19.221Z,10.50
2022-10-20T08:47:46.836Z,10.60
2022-10-20T08:50:16.157Z,10.60
2022-10-20T08:52:51.021Z,10.60
2022-10-20T08:57:48.845Z,10.70
2022-10-20T09:00:15.387Z,10.70
2022-10-20T09:02:44.636Z,10.80
2022-10-20T09:05:15.397Z,10.80
2022-10-20T09:07:45.283Z,10.80
2022-10-20T09:10:17.870Z,10.90
2022-10-20T09:12:45.913Z,10.90
2022-10-20T09:15:13.827Z,11.00
2022-10-20T09:17:44.027Z,11.00
2022-10-20T09:20:17.876Z,11.10
2022-10-20T09:22:44.746Z,11.10
2022-10-20T09:25:23.795Z,11.20
2022-10-20T09:27:50.748Z,11.20
2022-10-20T09:30:22.461Z,11.30
2022-10-20T09:32:51.962Z,11.30
2022-10-20T09:35:20.354Z,11.30
2022-10-20T09:37:54.812Z,11.40
2022-10-20T09:40:22.663Z,11.40
2022-10-20T09:43:06.742Z,11.40
2022-10-20T09:45:34.953Z,11.50
2022-10-20T09:48:07.558Z,11.50
2022-10-20T09:50:39.245Z,11.40
2022-10-20T09:53:13.967Z,11.50
2022-10-20T09:55:45.218Z,11.50
2022-10-20T09:58:23.840Z,11.60
2022-10-20T10:01:11.492Z,11.60
2022-10-20T10:03:41.927Z,11.60
2022-10-20T10:06:22.854Z,11.60
2022-10-20T10:08:49.450Z,11.70
2022-10-20T10:11:19.200Z,11.70
2022-10-20T10:13:49.655Z,11.80
2022-10-20T10:16:17.658Z,11.80
2022-10-20T10:18:54.144Z,11.90
2022-10-20T10:21:23.283Z,11.90
2022-10-20T10:23:54.170Z,12.00
2022-10-20T10:26:39.688Z,12.00
2022-10-20T10:29:15.181Z,11.90
2022-10-20T10:31:49.164Z,12.00
2022-10-20T10:34:15.680Z,12.00
2022-10-20T10:36:42.349Z,12.00
2022-10-20T10:39:15.611Z,11.90
2022-10-20T10:42:00.831Z,11.90
2022-10-20T10:44:36.460Z,11.90
2022-10-20T10:47:02.965Z,11.90
2022-10-20T10:49:31.994Z,12.00
2022-10-20T10:52:13.590Z,12.00
2022-10-20T10:54:46.012Z,12.00
2022-10-20T10:57:21.615Z,12.00
2022-10-20T10:59:49.527Z,12.10
2022-10-20T11:02:16.052Z,12.20
2022-10-20T11:05:02.651Z,12.20
2022-10-20T11:07:37.779Z,12.20
2022-10-20T11:10:11.034Z,12.20
2022-10-20T11:12:37.551Z,12.30
2022-10-20T11:15:24.312Z,12.40
2022-10-20T11:17:56.345Z,12.40
2022-10-20T11:20:22.884Z,12.40
2022-10-20T11:23:07.180Z,12.40
2022-10-20T11:25:37.899Z,12.50
2022-10-20T11:28:08.608Z,12.50
2022-10-20T11:30:35.148Z,12.50
2022-10-20T11:33:09.722Z,12.50
2022-10-20T11:35:56.495Z,12.50
2022-10-20T11:38:36.129Z,12.50
2022-10-20T11:41:28.894Z,12.40
2022-10-20T11:43:57.913Z,12.40
2022-10-20T11:46:34.872Z,12.30
2022-10-20T11:49:04.263Z,12.40
2022-10-20T11:51:30.792Z,12.40
2022-10-20T11:54:16.089Z,12.40
2022-10-20T11:56:54.966Z,12.40
2022-10-20T11:59:33.496Z,12.40
2022-10-20T12:02:03.602Z,12.40
2022-10-20T12:04:36.154Z,12.40
2022-10-20T12:07:38.037Z,12.40
2022-10-20T12:10:04.573Z,12.40
2022-10-20T12:12:36.375Z,12.50
2022-10-20T12:15:04.229Z,12.50
2022-10-20T12:17:33.240Z,12.50
2022-10-20T12:20:18.583Z,12.50
2022-10-20T12:22:45.218Z,12.50
2022-10-20T12:25:17.369Z,12.50
2022-10-20T12:27:43.977Z,12.50
2022-10-20T12:30:29.255Z,12.50
2022-10-20T12:32:55.841Z,12.50
2022-10-20T12:35:22.355Z,12.60
2022-10-20T12:38:03.962Z,12.60
2022-10-20T12:40:36.805Z,12.60
2022-10-20T12:43:03.409Z,12.70
2022-10-20T12:45:50.421Z,12.70
2022-10-20T12:48:21.778Z,12.70
2022-10-20T12:50:50.706Z,12.70
2022-10-20T12:53:17.221Z,12.80
2022-10-20T12:55:53.522Z,12.70
2022-10-20T12:58:20.037Z,12.70
2022-10-20T13:00:46.665Z,12.50
2022-10-20T13:03:39.579Z,12.70
2022-10-20T13:06:26.876Z,12.70
2022-10-20T13:09:02.551Z,12.70
2022-10-20T13:11:33.770Z,12.70
2022-10-20T13:14:15.104Z,12.60
2022-10-20T13:16:47.374Z,12.50
2022-10-20T13:19:17.054Z,12.50
2022-10-20T13:21:47.389Z,12.60
2022-10-20T13:24:16.115Z,12.60
2022-10-20T13:26:42.870Z,12.60
2022-10-20T13:29:11.722Z,12.60
2022-10-20T13:31:41.038Z,12.60
2022-10-20T13:34:15.284Z,12.60
2022-10-20T13:37:00.745Z,12.50
2022-10-20T13:39:33.473Z,12.60
2022-10-20T13:41:59.957Z,12.60
2022-10-20T13:44:38.825Z,12.50
2022-10-20T13:47:23.641Z,12.40
2022-10-20T13:50:00.236Z,12.40
2022-10-20T13:52:28.652Z,12.50
2022-10-20T13:54:55.622Z,12.40
2022-10-20T13:57:29.478Z,12.40
2022-10-20T14:00:00.258Z,12.40
2022-10-20T14:02:26.781Z,12.40
2022-10-20T14:05:25.189Z,12.40
2022-10-20T14:07:54.872Z,12.40
2022-10-20T14:10:50.592Z,12.50
2022-10-20T14:13:19.248Z,12.40
2022-10-20T14:15:49.213Z,12.40
2022-10-20T14:18:21.906Z,12.40
2022-10-20T14:21:02.832Z,12.40
2022-10-20T14:23:34.680Z,12.50
2022-10-20T14:26:01.952Z,12.50
2022-10-20T14:28:32.582Z,12.50
2022-10-20T14:30:59.741Z,12.50
2022-10-20T14:33:26.521Z,12.50
2022-10-20T14:35:54.540Z,12.50
2022-10-20T14:38:27.780Z,12.60
2022-10-20T14:40:55.567Z,12.60
2022-10-20T14:43:39.563Z,12.60
2022-10-20T14:46:07.613Z,12.70
2022-10-20T14:48:40.352Z,12.70
2022-10-20T14:51:25.425Z,12.70
2022-10-20T14:53:51.998Z,12.70
2022-10-20T14:56:28.008Z,12.60
2022-10-20T14:58:54.517Z,12.60
2022-10-20T15:01:28.168Z,12.60
2022-10-20T15:04:13.289Z,12.60
2022-10-20T15:06:39.918Z,12.60
2022-10-20T15:09:10.772Z,12.60
2022-10-20T15:11:39.053Z,12.60
2022-10-20T15:14:12.798Z,12.60
2022-10-20T15:16:44.584Z,12.60
2022-10-20T15:19:25.490Z,12.50
2022-10-20T15:22:01.735Z,12.40
2022-10-20T15:24:28.848Z,12.40
2022-10-20T15:26:55.984Z,12.40
2022-10-20T15:29:22.604Z,12.40
2022-10-20T15:31:49.153Z,12.40
2022-10-20T15:34:17.901Z,12.40
2022-10-20T15:36:46.333Z,12.40
2022-10-20T15:39:14.209Z,12.30
2022-10-20T15:41:40.836Z,12.30
2022-10-20T15:44:10.191Z,12.20
2022-10-20T15:46:36.741Z,12.20
2022-10-20T15:49:03.309Z,12.30
2022-10-20T15:51:31.155Z,12.20
2022-10-20T15:53:59.934Z,12.10
2022-10-20T15:56:29.095Z,12.20
2022-10-20T15:58:55.677Z,12.10
2022-10-20T16:01:22.303Z,12.00
2022-10-20T16:03:51.396Z,11.90
2022-10-20T16:06:18.447Z,12.00
2022-10-20T16:08:48.834Z,12.10
2022-10-20T16:11:16.905Z,12.10
2022-10-20T16:13:43.458Z,12.10
2022-10-20T16:16:12.638Z,12.10
2022-10-20T16:18:39.252Z,12.10
2022-10-20T16:21:06.061Z,12.20
2022-10-20T16:23:34.804Z,12.20
2022-10-20T16:26:03.793Z,12.20
2022-10-20T16:28:30.351Z,12.30
2022-10-20T16:31:07.387Z,12.30
2022-10-20T16:33:33.983Z,12.40
2022-10-20T16:38:42.292Z,12.30
2022-10-20T16:41:10.232Z,12.30
2022-10-20T16:43:37.654Z,12.20
2022-10-20T16:46:05.193Z,12.10
2022-10-20T16:48:33.718Z,12.00
2022-10-20T16:51:08.804Z,12.00
2022-10-20T16:53:35.578Z,12.00
2022-10-20T16:56:02.166Z,12.00
2022-10-20T16:58:28.706Z,12.00
2022-10-20T17:01:03.843Z,12.00
2022-10-20T17:03:30.671Z,11.90
2022-10-20T17:06:01.738Z,11.90
2022-10-20T17:08:30.334Z,11.90
2022-10-20T17:11:00.909Z,12.00
2022-10-20T17:13:28.177Z,12.00
2022-10-20T17:15:54.887Z,11.90
2022-10-20T17:18:21.575Z,12.00
2022-10-20T17:20:52.290Z,12.00
2022-10-20T17:23:18.836Z,12.00
2022-10-20T17:25:45.374Z,12.00
2022-10-20T17:28:11.886Z,12.10
2022-10-20T17:30:41.859Z,12.10
2022-10-20T17:33:08.899Z,12.00
2022-10-20T17:35:35.918Z,12.00
2022-10-20T17:38:04.805Z,12.00
2022-10-20T17:40:35.669Z,12.00
2022-10-20T17:43:02.285Z,11.90
2022-10-20T17:45:28.834Z,11.90
2022-10-20T17:47:55.535Z,11.90
2022-10-20T17:50:22.086Z,11.90
2022-10-20T17:52:48.647Z,11.90
2022-10-20T17:55:15.312Z,11.80
2022-10-20T17:57:41.827Z,11.80
2022-10-20T18:00:13.020Z,11.80
2022-10-20T18:02:49.253Z,11.80
2022-10-20T18:05:18.284Z,11.90
2022-10-20T18:07:45.071Z,11.90
2022-10-20T18:10:11.993Z,11.90
2022-10-20T18:12:41.043Z,11.90
2022-10-20T18:15:07.733Z,11.90
2022-10-20T18:17:35.018Z,11.90
2022-10-20T18:20:01.820Z,11.90
2022-10-20T18:22:30.823Z,11.90
2022-10-20T18:24:59.891Z,11.80
2022-10-20T18:27:31.168Z,11.80
2022-10-20T18:29:57.680Z,11.80
2022-10-20T18:32:24.333Z,11.90
2022-10-20T18:34:50.903Z,11.90
2022-10-20T18:37:19.207Z,11.90
2022-10-20T18:39:48.221Z,11.90
2022-10-20T18:42:17.002Z,11.90
2022-10-20T18:44:43.633Z,11.90
2022-10-20T18:47:11.350Z,11.90
2022-10-20T18:49:37.886Z,11.90
2022-10-20T18:52:04.498Z,11.90
2022-10-20T18:54:31.104Z,12.00
2022-10-20T18:57:00.201Z,12.00
2022-10-20T18:59:26.746Z,12.00
2022-10-20T19:01:55.770Z,12.00
2022-10-20T19:04:22.317Z,12.00
2022-10-20T19:06:48.982Z,12.00
2022-10-20T19:09:17.135Z,12.00
2022-10-20T19:11:44.719Z,12.00
2022-10-20T19:14:14.059Z,12.00
2022-10-20T19:16:44.716Z,11.90
2022-10-20T19:19:11.401Z,12.00
2022-10-20T19:21:40.143Z,11.90
2022-10-20T19:24:08.561Z,12.00
2022-10-20T19:26:36.636Z,11.90
2022-10-20T19:29:12.320Z,11.90
2022-10-20T19:31:42.382Z,12.00
2022-10-20T19:34:14.333Z,12.00
2022-10-20T19:36:41.510Z,12.00
2022-10-20T19:39:08.947Z,12.00
2022-10-20T19:41:35.478Z,12.00
2022-10-20T19:44:03.043Z,12.00
2022-10-20T19:46:29.640Z,12.00
2022-10-20T19:48:57.414Z,12.00
2022-10-20T19:51:24.135Z,11.90
2022-10-20T19:53:50.730Z,12.00
2022-10-20T19:56:17.438Z,12.00
2022-10-20T19:58:46.582Z,12.00
2022-10-20T20:01:16.372Z,12.10
2022-10-20T20:03:43.460Z,12.10
2022-10-20T20:06:11.336Z,12.10
2022-10-20T20:08:37.921Z,12.10
2022-10-20T20:11:05.195Z,12.10
2022-10-20T20:13:32.124Z,12.10
2022-10-20T20:16:07.034Z,12.00
2022-10-20T20:18:36.909Z,12.00
2022-10-20T20:21:04.327Z,12.00
2022-10-20T20:23:41.157Z,12.00
2022-10-20T20:26:20.701Z,12.00
2022-10-20T20:28:47.209Z,12.00
2022-10-20T20:31:13.757Z,12.00
2022-10-20T20:33:42.722Z,12.00
2022-10-20T20:36:11.750Z,12.00
2022-10-20T20:38:41.440Z,12.00
2022-10-20T20:41:10.570Z,12.00
2022-10-20T20:43:37.508Z,12.00
2022-10-20T20:46:08.148Z,12.00
2022-10-20T20:48:35.073Z,12.00
2022-10-20T20:51:01.642Z,12.00
2022-10-20T20:53:28.298Z,12.00
2022-10-20T20:55:57.606Z,12.00
2022-10-20T20:58:24.599Z,12.00
2022-10-20T21:00:53.813Z,12.00
2022-10-20T21:03:20.426Z,12.10
2022-10-20T21:05:46.990Z,12.10
2022-10-20T21:08:13.649Z,12.10
2022-10-20T21:10:42.624Z,12.10
2022-10-20T21:13:11.606Z,12.10
2022-10-20T21:15:38.157Z,12.10
2022-10-20T21:18:07.067Z,12.10
2022-10-20T21:20:35.724Z,12.10
2022-10-20T21:23:02.268Z,12.10
2022-10-20T21:25:30.956Z,12.10
2022-10-20T21:27:57.793Z,12.20
2022-10-20T21:30:24.397Z,12.10
2022-10-20T21:32:50.961Z,12.10
2022-10-20T21:35:17.475Z,12.10
2022-10-20T21:37:44.051Z,12.10
2022-10-20T21:40:13.097Z,12.20
2022-10-20T21:42:39.837Z,12.20
2022-10-20T21:45:07.602Z,12.20
2022-10-20T21:47:34.096Z,12.20
2022-10-20T21:50:00.728Z,12.10
2022-10-20T21:52:27.240Z,12.10
2022-10-20T21:54:53.727Z,12.00
2022-10-20T21:57:20.247Z,12.00
2022-10-20T21:59:50.397Z,12.00
2022-10-20T22:02:16.959Z,12.10
2022-10-20T22:04:43.464Z,12.10
2022-10-20T22:07:09.964Z,12.00
2022-10-20T22:09:41.173Z,12.10
2022-10-20T22:12:10.091Z,12.10
2022-10-20T22:14:40.689Z,12.00
2022-10-20T22:17:09.144Z,12.10
2022-10-20T22:19:35.665Z,12.10
2022-10-20T22:22:02.200Z,12.10
2022-10-20T22:24:31.163Z,12.10
2022-10-20T22:26:57.739Z,12.10
2022-10-20T22:29:24.295Z,12.10
2022-10-20T22:31:50.838Z,12.20
2022-10-20T22:34:17.371Z,12.20
2022-10-20T22:36:44.409Z,12.20
2022-10-20T22:39:14.666Z,12.20
2022-10-20T22:41:41.542Z,12.30
2022-10-20T22:44:10.575Z,12.30
2022-10-20T22:46:39.567Z,12.30
2022-10-20T22:49:06.097Z,12.20
2022-10-20T22:51:32.599Z,12.20
2022-10-20T22:53:59.136Z,12.30
2022-10-20T22:56:25.699Z,12.30
2022-10-20T22:58:55.230Z,12.30
2022-10-20T23:01:22.803Z,12.30
2022-10-20T23:03:52.085Z,12.30
2022-10-20T23:06:20.215Z,12.30
2022-10-20T23:08:48.642Z,12.30
2022-10-20T23:11:17.845Z,12.30
2022-10-20T23:13:44.639Z,12.30
2022-10-20T23:16:11.623Z,12.40
2022-10-20T23:18:38.607Z,12.40
2022-10-20T23:21:05.607Z,12.40
2022-10-20T23:23:34.240Z,12.40
2022-10-20T23:26:03.708Z,12.40
2022-10-20T23:28:31.364Z,12.50
2022-10-20T23:31:24.341Z,12.50
2022-10-20T23:33:53.750Z,12.50
2022-10-20T23:36:20.474Z,12.50
2022-10-20T23:38:47.583Z,12.50
2022-10-20T23:41:16.984Z,12.50
2022-10-20T23:43:43.621Z,12.50
2022-10-20T23:46:11.925Z,12.50
2022-10-20T23:48:38.921Z,12.50
2022-10-20T23:51:05.918Z,12.60
2022-10-20T23:53:32.749Z,12.60
2022-10-20T23:55:59.329Z,12.60
2022-10-20T23:58:25.981Z,12.50
